Time;durP1;ratioP1;P1;durP2;ratioP2;P2;SDS_P1;SDS_P2;PMS_P1;PMS_P2;Temp;Humidity;BMP_temperature;BMP_pressure;BME280_temperature;BME280_humidity;BME280_pressure;Samples;Min_cycle;Max_cycle;Signal;HPM_P1;HPM_P2
2022/05/05 00:02:04;;;;;;;8.47;4.33;;;;;;;6.51;77.46;102038.19;5048733;28;20185;-71
2022/05/05 00:04:29;;;;;;;8.77;4.93;;;;;;;6.58;77.13;102037.69;5034611;28;20196;-71
2022/05/05 00:06:54;;;;;;;7.47;4.40;;;;;;;6.48;77.20;102032.91;5030119;28;20197;-71
2022/05/05 00:09:20;;;;;;;8.83;4.70;;;;;;;6.41;76.60;102035.91;5029391;28;20183;-71
2022/05/05 00:14:31;;;;;;;9.87;4.47;;;;;;;6.34;76.51;102032.94;5029195;28;20209;-71
2022/05/05 00:17:03;;;;;;;8.57;5.10;;;;;;;6.15;76.31;102037.81;5028292;28;20608;-71
2022/05/05 00:19:34;;;;;;;10.97;4.77;;;;;;;6.10;76.40;102034.13;5043570;28;20248;-71
2022/05/05 00:22:01;;;;;;;7.63;5.13;;;;;;;6.11;76.43;102033.31;5049000;28;20186;-71
2022/05/05 00:24:26;;;;;;;8.67;4.93;;;;;;;6.13;76.67;102036.84;5048767;28;20553;-71
2022/05/05 00:26:52;;;;;;;7.60;5.27;;;;;;;6.02;77.20;102031.16;5048999;28;20180;-71
2022/05/05 00:29:18;;;;;;;7.77;4.63;;;;;;;5.88;77.33;102033.69;5047189;28;20284;-71
2022/05/05 00:31:44;;;;;;;9.37;4.93;;;;;;;5.81;77.16;102037.56;5038025;28;20197;-71
2022/05/05 00:34:09;;;;;;;5.00;4.17;;;;;;;5.82;77.12;102035.91;5027381;28;20264;-71
2022/05/05 00:36:35;;;;;;;6.03;4.70;;;;;;;5.74;77.49;102043.06;5047350;28;20190;-71
2022/05/05 00:39:00;;;;;;;8.20;4.47;;;;;;;5.76;77.07;102043.16;5040983;28;20206;-71
2022/05/05 00:41:26;;;;;;;8.13;4.70;;;;;;;5.71;76.78;102037.78;5036591;28;20194;-71
2022/05/05 00:43:51;;;;;;;7.00;4.43;;;;;;;5.69;76.92;102041.03;5028836;28;20218;-70
2022/05/05 00:46:16;;;;;;;8.30;4.77;;;;;;;5.51;77.43;102047.56;5027875;28;20194;-70
2022/05/05 00:48:45;;;;;;;7.73;5.20;;;;;;;5.57;77.15;102038.66;5033310;28;20833;-70
2022/05/05 00:51:10;;;;;;;6.90;4.90;;;;;;;5.52;77.47;102041.72;5032088;28;20186;-71
2022/05/05 00:53:36;;;;;;;10.50;5.27;;;;;;;5.46;77.69;102039.69;5032161;28;20211;-70
2022/05/05 00:56:08;;;;;;;9.90;5.27;;;;;;;5.41;78.30;102043.63;5032326;28;20698;-70
2022/05/05 00:58:34;;;;;;;8.20;5.80;;;;;;;5.48;78.54;102044.88;5029465;28;20241;-70
2022/05/05 01:01:06;;;;;;;12.30;5.77;;;;;;;5.51;78.30;102045.91;5038196;28;20622;-71
2022/05/05 01:03:36;;;;;;;6.80;5.60;;;;;;;5.49;77.90;102042.44;5051598;28;20331;-70
2022/05/05 01:06:03;;;;;;;7.17;5.37;;;;;;;5.40;78.21;102051.16;5050646;28;20276;-70
2022/05/05 01:08:28;;;;;;;10.53;5.77;;;;;;;5.29;78.57;102050.50;5051740;28;20197;-71
2022/05/05 01:10:53;;;;;;;11.43;5.90;;;;;;;5.28;78.93;102051.31;5051994;28;20264;-71
2022/05/05 01:13:19;;;;;;;8.27;6.40;;;;;;;5.28;78.90;102055.50;5038329;28;20201;-71
2022/05/05 01:15:45;;;;;;;9.30;5.87;;;;;;;5.26;79.43;102045.28;5039744;28;20187;-71
2022/05/05 01:18:10;;;;;;;11.20;6.60;;;;;;;5.24;79.48;102045.94;5031829;28;20210;-71
2022/05/05 01:20:44;;;;;;;10.10;6.80;;;;;;;5.25;79.42;102051.13;5031477;28;20201;-70
2022/05/05 01:23:10;;;;;;;9.20;6.50;;;;;;;5.20;80.08;102052.50;5031824;28;20267;-71
2022/05/05 01:28:20;;;;;;;14.53;7.10;;;;;;;5.14;81.00;102048.72;5036346;28;20181;-70
2022/05/05 01:30:47;;;;;;;8.80;6.10;;;;;;;5.12;81.62;102045.22;5031104;28;20178;-71
2022/05/05 01:33:14;;;;;;;10.77;6.63;;;;;;;5.14;80.82;102048.72;5031856;28;20206;-71
2022/05/05 01:35:41;;;;;;;9.30;6.40;;;;;;;5.07;80.63;102046.63;5030577;28;20240;-70
2022/05/05 01:38:08;;;;;;;9.97;6.40;;;;;;;5.00;80.46;102047.91;5031059;28;20262;-70
2022/05/05 01:40:36;;;;;;;8.70;6.37;;;;;;;5.01;80.33;102056.41;5030934;28;20198;-71
2022/05/05 01:43:04;;;;;;;10.43;6.47;;;;;;;5.03;80.51;102055.72;5033844;28;20221;-72
2022/05/05 01:45:30;;;;;;;10.73;6.47;;;;;;;5.02;81.22;102063.22;5028334;28;20195;-70
2022/05/05 01:47:55;;;;;;;11.77;7.20;;;;;;;4.95;80.74;102066.16;5033368;28;20256;-71
2022/05/05 01:50:22;;;;;;;8.37;6.93;;;;;;;4.91;81.17;102066.75;5031461;28;20174;-70
2022/05/05 01:52:47;;;;;;;7.83;6.70;;;;;;;4.90;81.18;102065.00;5030754;28;20245;-71
2022/05/05 01:55:13;;;;;;;9.27;6.70;;;;;;;4.86;81.25;102071.56;5042625;28;20186;-71
2022/05/05 01:57:38;;;;;;;11.03;6.90;;;;;;;4.82;80.78;102072.16;5043979;28;20306;-71
2022/05/05 02:00:04;;;;;;;13.00;6.87;;;;;;;4.88;80.91;102076.72;5050620;28;20186;-70
2022/05/05 02:02:40;;;;;;;8.33;6.87;;;;;;;4.80;81.43;102080.44;5039720;28;20267;-70
2022/05/05 02:05:06;;;;;;;9.80;6.57;;;;;;;4.80;81.02;102078.81;5038827;28;20190;-70
2022/05/05 02:07:31;;;;;;;11.27;6.73;;;;;;;4.86;80.51;102089.31;5050684;28;20240;-70
2022/05/05 02:10:01;;;;;;;12.03;6.70;;;;;;;4.77;80.78;102088.75;5034885;28;20186;-71
2022/05/05 02:12:27;;;;;;;8.63;5.93;;;;;;;4.75;81.24;102097.03;5033748;28;20222;-71
2022/05/05 02:14:53;;;;;;;10.30;6.27;;;;;;;4.69;81.04;102087.38;5037163;28;20201;-72
2022/05/05 02:17:18;;;;;;;9.50;6.87;;;;;;;4.67;81.40;102090.59;5050418;28;20182;-71
2022/05/05 02:19:43;;;;;;;9.03;5.97;;;;;;;4.55;81.13;102100.00;5050760;28;20185;-71
2022/05/05 02:22:09;;;;;;;10.23;6.93;;;;;;;4.50;80.53;102094.63;5050144;28;20216;-71
2022/05/05 02:24:34;;;;;;;9.07;6.60;;;;;;;4.41;80.53;102099.09;5049514;28;20181;-71
2022/05/05 02:26:59;;;;;;;9.10;6.90;;;;;;;4.44;80.92;102095.88;5027117;28;20194;-71
2022/05/05 02:29:24;;;;;;;9.13;6.47;;;;;;;4.42;80.43;102102.53;5032106;28;20190;-71
2022/05/05 02:31:50;;;;;;;9.67;6.80;;;;;;;4.36;80.74;102104.66;5029889;28;20198;-71
2022/05/05 02:34:15;;;;;;;7.83;6.37;;;;;;;4.33;80.41;102097.72;5030664;28;20237;-70
2022/05/05 02:39:24;;;;;;;9.47;6.23;;;;;;;4.35;81.62;102101.25;5030081;28;20240;-71
2022/05/05 02:41:50;;;;;;;9.23;6.07;;;;;;;4.23;80.73;102104.69;5022728;28;20186;-71
2022/05/05 02:44:15;;;;;;;8.03;6.90;;;;;;;4.26;80.83;102099.78;5043065;28;20182;-70
2022/05/05 02:46:40;;;;;;;9.47;6.23;;;;;;;4.26;80.88;102094.72;5050298;28;20230;-70
2022/05/05 02:49:06;;;;;;;8.10;5.87;;;;;;;4.18;81.22;102099.28;5049839;28;20265;-70
2022/05/05 02:51:31;;;;;;;8.67;6.20;;;;;;;4.19;81.46;102102.72;5050277;28;20269;-70
2022/05/05 02:56:40;;;;;;;10.37;6.87;;;;;;;4.11;81.99;102106.41;5035586;28;20194;-70
2022/05/05 02:59:06;;;;;;;7.47;6.67;;;;;;;4.07;82.38;102105.34;5048693;28;20232;-71
2022/05/05 03:01:31;;;;;;;9.00;6.63;;;;;;;4.07;81.49;102106.97;5049664;28;20566;-70
2022/05/05 03:03:56;;;;;;;10.47;6.40;;;;;;;4.07;82.13;102104.44;5049634;28;20231;-70
2022/05/05 03:06:21;;;;;;;10.87;6.70;;;;;;;4.02;82.35;102098.19;5049476;28;20185;-71
2022/05/05 03:08:47;;;;;;;7.27;6.40;;;;;;;4.00;82.13;102104.84;5045537;28;20316;-71
2022/05/05 03:11:12;;;;;;;8.50;7.00;;;;;;;4.02;81.80;102104.16;5032719;28;20216;-70
2022/05/05 03:13:38;;;;;;;11.03;6.50;;;;;;;3.94;82.40;102106.94;5031831;28;20206;-71
2022/05/05 03:16:04;;;;;;;9.53;6.90;;;;;;;3.91;82.48;102110.16;5029318;28;20197;-70
2022/05/05 03:18:29;;;;;;;9.10;7.30;;;;;;;3.86;82.12;102103.91;5029332;28;20215;-70
2022/05/05 03:20:55;;;;;;;8.57;7.30;;;;;;;3.82;82.29;102108.69;5029894;28;20224;-70
2022/05/05 03:23:20;;;;;;;11.73;7.57;;;;;;;3.78;82.43;102102.50;5025949;28;20300;-70
2022/05/05 03:25:45;;;;;;;9.13;6.87;;;;;;;3.64;82.56;102103.25;5038369;28;20198;-70
2022/05/05 03:28:11;;;;;;;10.10;6.77;;;;;;;3.70;82.40;102107.88;5029040;28;20187;-71
2022/05/05 03:30:36;;;;;;;8.87;7.20;;;;;;;3.65;82.12;102104.16;5029389;28;20240;-70
2022/05/05 03:33:02;;;;;;;8.83;7.20;;;;;;;3.60;82.29;102110.56;5027762;28;20206;-70
2022/05/05 03:35:27;;;;;;;8.27;7.13;;;;;;;3.51;82.15;102117.53;5029821;28;20297;-71
2022/05/05 03:37:52;;;;;;;10.60;7.93;;;;;;;3.49;82.28;102119.09;5027562;28;20230;-70
2022/05/05 03:40:18;;;;;;;8.20;7.33;;;;;;;3.36;81.92;102117.38;5028788;28;20186;-70
2022/05/05 03:42:43;;;;;;;9.53;7.20;;;;;;;3.38;82.24;102123.44;5030759;28;20206;-70
2022/05/05 03:45:09;;;;;;;8.83;6.97;;;;;;;3.36;82.29;102119.91;5029059;28;20276;-70
2022/05/05 03:47:34;;;;;;;10.33;7.57;;;;;;;3.39;81.65;102125.19;5029075;28;20290;-70
2022/05/05 03:49:59;;;;;;;12.90;7.67;;;;;;;3.48;81.73;102123.28;5029054;28;20205;-70
2022/05/05 03:52:24;;;;;;;9.80;7.67;;;;;;;3.48;82.40;102120.75;5028917;28;20783;-71
2022/05/05 03:54:50;;;;;;;11.50;7.57;;;;;;;3.54;82.59;102117.75;5040843;28;20637;-72
2022/05/05 03:57:15;;;;;;;12.70;8.57;;;;;;;3.55;83.63;102119.50;5041750;28;20669;-72
2022/05/05 03:59:40;;;;;;;10.73;7.90;;;;;;;3.51;83.98;102123.50;5047853;28;20230;-71
2022/05/05 04:02:06;;;;;;;11.17;8.43;;;;;;;3.52;83.90;102125.25;5047714;28;20567;-71
2022/05/05 04:04:31;;;;;;;13.17;8.50;;;;;;;3.58;83.60;102123.09;5042353;28;20549;-71
2022/05/05 04:06:56;;;;;;;11.30;7.90;;;;;;;3.62;82.72;102125.06;5042743;28;20681;-70
2022/05/05 04:09:22;;;;;;;10.83;8.13;;;;;;;3.59;83.57;102136.66;5038919;28;20655;-70
2022/05/05 04:11:47;;;;;;;9.17;8.00;;;;;;;3.61;84.09;102135.09;5048176;28;20720;-72
2022/05/05 04:14:12;;;;;;;11.27;8.47;;;;;;;3.62;83.42;102140.28;5048786;28;20186;-71
2022/05/05 04:16:38;;;;;;;10.60;8.40;;;;;;;3.66;83.17;102132.09;5048941;28;20189;-71
2022/05/05 04:19:04;;;;;;;13.07;8.90;;;;;;;3.66;83.94;102143.88;5048485;28;20239;-71
2022/05/05 04:21:30;;;;;;;10.97;8.63;;;;;;;3.69;83.78;102139.88;5047592;28;20235;-72
2022/05/05 04:23:56;;;;;;;12.20;8.83;;;;;;;3.77;83.75;102140.44;5024777;28;20215;-71
2022/05/05 04:26:22;;;;;;;11.87;9.97;;;;;;;3.81;84.57;102148.31;5033485;28;20267;-70
2022/05/05 04:28:48;;;;;;;10.53;9.43;;;;;;;3.89;84.42;102143.75;5033012;28;20202;-70
2022/05/05 04:31:16;;;;;;;13.03;9.67;;;;;;;3.96;84.15;102139.19;5032672;28;20190;-71
2022/05/05 04:33:42;;;;;;;12.70;9.17;;;;;;;4.06;84.85;102149.19;5032683;28;20277;-71
2022/05/05 04:36:08;;;;;;;12.70;9.33;;;;;;;4.12;84.92;102149.59;5048844;28;20277;-71
2022/05/05 04:38:34;;;;;;;13.67;9.33;;;;;;;4.17;85.39;102155.81;5038387;28;20241;-71
2022/05/05 04:40:59;;;;;;;12.93;8.97;;;;;;;4.28;85.47;102156.53;5032057;28;20193;-71
2022/05/05 04:43:24;;;;;;;12.80;10.23;;;;;;;4.40;85.79;102150.59;5014020;28;20312;-71
2022/05/05 04:45:50;;;;;;;13.83;9.90;;;;;;;4.51;85.80;102154.69;5029424;28;20271;-70
2022/05/05 04:48:15;;;;;;;13.37;10.17;;;;;;;4.61;85.63;102156.16;5025782;28;20278;-71
2022/05/05 04:50:40;;;;;;;13.27;9.67;;;;;;;4.72;85.89;102163.69;5023356;28;20191;-71
2022/05/05 04:53:06;;;;;;;13.13;9.87;;;;;;;4.80;86.07;102157.44;5024969;28;20234;-71
2022/05/05 04:55:31;;;;;;;14.07;10.83;;;;;;;4.89;85.74;102164.75;5031854;28;20191;-71
2022/05/05 04:57:56;;;;;;;12.70;10.17;;;;;;;4.97;85.37;102161.03;5030945;28;20260;-71
2022/05/05 05:00:22;;;;;;;14.60;10.33;;;;;;;5.11;85.69;102168.72;5031965;28;20545;-71
2022/05/05 05:02:49;;;;;;;12.60;9.77;;;;;;;5.23;85.10;102168.59;5031469;28;20213;-71
2022/05/05 05:05:14;;;;;;;16.10;9.03;;;;;;;5.33;84.29;102169.25;5017211;28;20281;-71
2022/05/05 05:07:39;;;;;;;11.30;8.90;;;;;;;5.45;83.81;102176.75;5012262;28;20273;-71
2022/05/05 05:10:05;;;;;;;10.43;9.23;;;;;;;5.55;83.16;102168.88;5010375;28;20847;-71
2022/05/05 05:12:31;;;;;;;13.53;9.90;;;;;;;5.67;83.40;102175.59;5020327;28;20285;-70
2022/05/05 05:14:56;;;;;;;13.40;9.60;;;;;;;5.80;82.73;102174.69;5021879;28;20187;-71
2022/05/05 05:17:21;;;;;;;11.00;8.93;;;;;;;5.92;81.92;102178.84;5025954;28;20690;-71
2022/05/05 05:19:47;;;;;;;14.27;9.37;;;;;;;6.08;81.54;102181.50;5031431;28;20593;-71
2022/05/05 05:22:12;;;;;;;13.20;8.57;;;;;;;6.24;81.40;102179.06;5016947;28;20680;-71
2022/05/05 05:24:38;;;;;;;10.83;8.53;;;;;;;6.40;81.31;102180.81;5011683;28;20193;-71
2022/05/05 05:27:04;;;;;;;10.23;9.17;;;;;;;6.57;80.02;102182.66;5023853;28;20193;-71
2022/05/05 05:29:30;;;;;;;9.07;8.17;;;;;;;6.64;79.07;102180.53;5047957;28;20248;-71
2022/05/05 05:31:55;;;;;;;11.87;8.47;;;;;;;6.75;78.88;102182.03;5048971;28;20713;-70
2022/05/05 05:34:20;;;;;;;10.80;9.03;;;;;;;6.92;79.10;102186.41;5050783;28;20185;-70
2022/05/05 05:36:49;;;;;;;10.60;8.00;;;;;;;7.06;78.12;102182.94;5050671;28;20201;-71
2022/05/05 05:39:16;;;;;;;10.40;8.03;;;;;;;7.18;77.34;102188.69;5035044;28;20309;-71
2022/05/05 05:41:41;;;;;;;10.90;8.73;;;;;;;7.31;77.72;102185.09;5031348;28;20194;-71
2022/05/05 05:44:06;;;;;;;8.43;7.53;;;;;;;7.43;77.67;102190.88;5016718;28;20242;-71
2022/05/05 05:46:32;;;;;;;10.40;8.00;;;;;;;7.54;76.82;102193.19;5031068;28;20204;-71
2022/05/05 05:48:57;;;;;;;12.33;7.87;;;;;;;7.64;75.70;102200.53;5030627;28;20285;-71
2022/05/05 05:51:24;;;;;;;9.60;7.60;;;;;;;7.78;75.09;102199.56;5030071;28;20286;-71
2022/05/05 05:53:50;;;;;;;12.53;7.50;;;;;;;7.89;76.25;102201.03;5031050;28;20229;-72
2022/05/05 05:56:15;;;;;;;11.70;8.17;;;;;;;8.04;75.63;102198.38;5015351;28;20246;-72
2022/05/05 05:58:40;;;;;;;11.00;7.10;;;;;;;8.23;74.71;102198.53;5011088;28;20241;-72
2022/05/05 06:01:06;;;;;;;9.47;6.97;;;;;;;8.37;74.46;102198.44;5008319;28;20202;-72
2022/05/05 06:04:13;;;;;;;8.37;6.87;;;;;;;8.44;73.83;102197.91;5026684;28;20221;-72
2022/05/05 06:06:29;;;;;;;10.50;7.50;;;;;;;8.60;74.36;102197.88;5010276;28;20238;-72
2022/05/05 06:08:54;;;;;;;9.90;7.67;;;;;;;8.79;73.14;102190.31;5030853;28;20181;-72
2022/05/05 06:11:21;;;;;;;11.63;7.40;;;;;;;8.97;72.48;102197.97;5030396;28;20209;-72
2022/05/05 06:13:47;;;;;;;12.10;6.70;;;;;;;9.08;72.37;102199.38;5010722;28;20222;-74
2022/05/05 06:16:12;;;;;;;7.47;5.40;;;;;;;9.27;70.96;102209.63;5010779;28;20183;-73
2022/05/05 06:18:38;;;;;;;6.97;5.37;;;;;;;9.36;69.56;102197.28;5010293;28;20219;-73
2022/05/05 06:21:04;;;;;;;7.17;5.27;;;;;;;9.53;69.09;102204.91;5018676;28;20568;-73
2022/05/05 06:23:29;;;;;;;8.30;5.03;;;;;;;9.69;68.28;102201.34;5030094;28;20206;-73
2022/05/05 06:25:55;;;;;;;7.90;5.40;;;;;;;9.79;67.00;102206.94;5028899;28;20190;-73
2022/05/05 06:28:20;;;;;;;7.50;5.13;;;;;;;9.98;66.95;102199.28;5037774;28;20576;-73
2022/05/05 06:30:45;;;;;;;8.90;5.03;;;;;;;9.95;67.42;102200.81;5029130;28;20197;-72
2022/05/05 06:33:11;;;;;;;10.27;4.80;;;;;;;10.20;66.94;102194.31;5030312;28;20297;-73
2022/05/05 06:35:36;;;;;;;10.00;5.40;;;;;;;10.42;66.81;102199.47;5029856;28;20277;-73
2022/05/05 06:38:02;;;;;;;6.73;4.00;;;;;;;10.54;65.48;102200.00;5029705;28;20257;-72
2022/05/05 06:40:27;;;;;;;7.30;4.10;;;;;;;10.90;64.55;102198.03;5033048;28;20776;-73
2022/05/05 06:42:54;;;;;;;6.23;3.80;;;;;;;10.95;63.36;102197.41;5030214;28;20222;-72
2022/05/05 06:45:19;;;;;;;5.97;4.20;;;;;;;11.14;63.66;102202.44;5015685;28;20230;-73
2022/05/05 06:47:45;;;;;;;6.47;3.77;;;;;;;11.21;62.66;102198.44;5009941;28;20660;-72
2022/05/05 06:50:11;;;;;;;5.93;3.43;;;;;;;11.33;61.87;102198.91;5009991;28;20286;-73
2022/05/05 06:52:36;;;;;;;8.03;3.40;;;;;;;11.34;61.53;102200.66;5009518;28;20233;-73
2022/05/05 06:55:03;;;;;;;5.07;2.37;;;;;;;11.72;62.15;102192.72;5021505;28;20241;-72
2022/05/05 06:57:29;;;;;;;5.33;2.67;;;;;;;11.70;61.12;102204.63;5028330;28;20217;-73
2022/05/05 06:59:54;;;;;;;3.97;2.70;;;;;;;11.74;60.03;102207.34;5029341;28;20206;-72
2022/05/05 07:02:19;;;;;;;9.77;2.47;;;;;;;11.98;59.56;102202.22;5027808;28;20242;-72
2022/05/05 07:07:29;;;;;;;6.30;1.90;;;;;;;12.29;57.21;102200.78;5029532;28;20268;-71
2022/05/05 07:12:38;;;;;;;4.43;2.20;;;;;;;12.46;57.30;102203.91;5030147;28;20230;-73
2022/05/05 07:15:04;;;;;;;4.80;2.10;;;;;;;12.57;57.36;102203.44;5027730;28;20583;-72
2022/05/05 07:17:29;;;;;;;3.90;2.03;;;;;;;12.75;56.14;102201.47;5029419;28;20264;-72
2022/05/05 07:19:55;;;;;;;7.90;2.27;;;;;;;12.89;55.91;102199.31;5028600;28;20182;-73
2022/05/05 07:22:21;;;;;;;5.40;2.60;;;;;;;13.17;55.90;102195.97;5030836;28;20695;-72
2022/05/05 07:24:46;;;;;;;4.77;2.03;;;;;;;13.13;56.01;102199.28;5028523;28;20185;-72
2022/05/05 07:27:12;;;;;;;3.73;2.30;;;;;;;13.31;56.21;102204.97;5032242;28;20194;-72
2022/05/05 07:29:38;;;;;;;6.63;2.17;;;;;;;13.30;55.11;102203.25;5046165;28;20239;-71
2022/05/05 07:32:04;;;;;;;9.23;2.37;;;;;;;13.42;53.70;102198.44;5048901;28;20190;-71
2022/05/05 07:34:30;;;;;;;3.87;2.00;;;;;;;13.52;54.04;102206.47;5049492;28;20662;-71
2022/05/05 07:36:56;;;;;;;7.00;2.10;;;;;;;13.61;54.88;102201.59;5040390;28;20186;-72
2022/05/05 07:39:22;;;;;;;6.90;2.20;;;;;;;13.89;53.27;102211.84;5016932;28;20229;-72
2022/05/05 07:41:48;;;;;;;7.33;2.23;;;;;;;13.82;53.16;102207.38;5020861;28;20211;-72
2022/05/05 07:44:14;;;;;;;6.83;2.37;;;;;;;13.87;52.89;102203.22;5000171;28;20231;-73
2022/05/05 07:46:39;;;;;;;5.17;1.87;;;;;;;14.04;52.20;102199.38;5020697;28;20309;-73
2022/05/05 07:49:05;;;;;;;3.30;1.67;;;;;;;14.29;52.29;102208.69;5026394;28;20660;-72
2022/05/05 07:51:31;;;;;;;4.70;1.53;;;;;;;14.36;53.72;102202.88;5021415;28;20613;-72
2022/05/05 07:56:43;;;;;;;4.97;1.97;;;;;;;14.85;53.09;102211.84;5031322;28;20190;-72
2022/05/05 07:59:09;;;;;;;5.83;1.90;;;;;;;15.05;50.66;102202.84;5016519;28;20687;-73
2022/05/05 08:01:34;;;;;;;5.40;1.60;;;;;;;15.10;50.36;102203.84;5031190;28;20320;-72
2022/05/05 08:03:59;;;;;;;5.10;2.00;;;;;;;15.25;50.51;102211.94;5030261;28;20293;-73
2022/05/05 08:06:25;;;;;;;4.47;1.70;;;;;;;15.44;50.09;102205.50;5020803;28;20198;-73
2022/05/05 08:08:50;;;;;;;6.53;2.13;;;;;;;15.80;48.61;102201.94;5032403;28;20225;-73
2022/05/05 08:11:15;;;;;;;4.63;1.90;;;;;;;15.99;48.36;102208.34;5031683;28;20264;-73
2022/05/05 08:13:41;;;;;;;5.63;1.57;;;;;;;15.99;48.23;102214.41;5021699;28;20634;-73
2022/05/05 08:16:07;;;;;;;5.63;1.73;;;;;;;15.84;46.99;102208.91;5040408;28;20194;-73
2022/05/05 08:18:32;;;;;;;8.50;2.70;;;;;;;16.18;46.71;102211.31;5028670;28;20683;-73
2022/05/05 08:20:58;;;;;;;5.93;1.70;;;;;;;16.32;47.10;102214.16;5032569;28;20679;-73
2022/05/05 08:23:23;;;;;;;3.13;1.70;;;;;;;16.59;46.87;102212.09;5032193;28;20214;-73
2022/05/05 08:28:36;;;;;;;4.70;1.77;;;;;;;16.83;45.83;102215.06;5032406;28;20611;-74
2022/05/05 08:31:02;;;;;;;4.67;1.73;;;;;;;16.33;45.39;102218.47;5029029;28;20676;-74
2022/05/05 08:33:27;;;;;;;4.80;1.97;;;;;;;16.45;45.67;102221.31;5037211;28;20252;-73
2022/05/05 08:35:59;;;;;;;4.27;1.67;;;;;;;16.65;45.85;102220.81;5038832;28;20276;-72
2022/05/05 08:38:25;;;;;;;7.53;1.63;;;;;;;16.75;45.43;102221.81;5031302;28;20687;-72
2022/05/05 08:40:51;;;;;;;5.87;2.00;;;;;;;16.80;45.35;102222.81;5032530;28;20188;-72
2022/05/05 08:43:17;;;;;;;7.50;1.93;;;;;;;17.10;45.13;102216.38;5032692;28;20213;-71
2022/05/05 08:45:45;;;;;;;6.43;2.30;;;;;;;17.20;45.04;102210.47;5025809;28;20554;-72
2022/05/05 08:48:12;;;;;;;5.80;2.13;;;;;;;17.13;44.92;102216.41;5031855;28;20559;-72
2022/05/05 08:50:39;;;;;;;5.07;1.83;;;;;;;17.00;44.37;102217.06;5032437;28;20199;-73
2022/05/05 08:53:06;;;;;;;6.97;1.93;;;;;;;16.99;45.65;102227.41;5032079;28;20213;-73
2022/05/05 08:55:32;;;;;;;4.63;1.87;;;;;;;16.88;44.25;102221.19;5032744;28;20189;-73
2022/05/05 08:57:59;;;;;;;5.17;1.77;;;;;;;16.75;44.99;102227.00;5023303;28;20221;-73
2022/05/05 09:00:27;;;;;;;10.87;2.27;;;;;;;16.75;44.67;102221.81;5042323;28;20225;-74
2022/05/05 09:03:00;;;;;;;5.83;1.77;;;;;;;16.86;44.34;102226.31;5051751;28;20214;-74
2022/05/05 09:05:44;;;;;;;4.23;1.90;;;;;;;17.07;43.51;102225.78;5051473;28;20178;-74
2022/05/05 09:08:12;;;;;;;6.67;2.03;;;;;;;17.00;43.15;102229.16;5050424;28;20184;-74
2022/05/05 09:10:50;;;;;;;4.70;1.43;;;;;;;17.23;43.54;102218.28;5051083;28;20181;-74
2022/05/05 09:13:21;;;;;;;6.57;1.90;;;;;;;17.31;42.26;102219.25;5051346;28;20209;-74
2022/05/05 09:15:47;;;;;;;5.60;1.63;;;;;;;17.28;43.79;102220.94;5051115;28;20174;-73
2022/05/05 09:18:14;;;;;;;5.00;1.87;;;;;;;17.58;43.67;102216.19;5041791;28;20225;-71
2022/05/05 09:20:40;;;;;;;5.40;2.20;;;;;;;17.76;44.26;102216.44;5012092;28;20191;-74
2022/05/05 09:23:06;;;;;;;4.37;1.63;;;;;;;17.96;41.20;102213.22;5011429;28;20206;-75
2022/05/05 09:25:47;;;;;;;5.23;1.70;;;;;;;17.66;41.50;102215.47;5011797;28;20294;-75
2022/05/05 09:28:17;;;;;;;4.00;1.60;;;;;;;17.90;41.99;102217.47;5044069;28;20231;-75
2022/05/05 09:30:51;;;;;;;7.13;2.13;;;;;;;18.19;42.88;102216.94;5051527;28;20261;-75
2022/05/05 09:33:41;;;;;;;3.83;1.63;;;;;;;18.32;41.72;102223.09;5051060;28;20241;-75
2022/05/05 09:36:36;;;;;;;5.23;1.73;;;;;;;18.60;42.14;102222.56;5051703;28;20270;-74
2022/05/05 09:39:04;;;;;;;4.97;2.10;;;;;;;19.04;40.77;102227.25;5050597;28;20225;-74
2022/05/05 09:41:42;;;;;;;7.67;2.00;;;;;;;18.92;41.20;102221.97;5051681;28;20190;-75
2022/05/05 09:44:20;;;;;;;4.60;1.60;;;;;;;18.60;39.23;102225.19;5049866;28;20746;-75
2022/05/05 09:46:46;;;;;;;5.50;1.60;;;;;;;19.11;39.35;102235.97;5051495;28;20178;-75
2022/05/05 09:49:16;;;;;;;5.10;1.90;;;;;;;19.30;39.20;102230.91;5050954;28;20260;-75
2022/05/05 09:57:42;;;;;;;4.27;2.00;;;;;;;19.66;38.09;102238.91;5028587;28;20195;-75
2022/05/05 10:05:46;;;;;;;4.83;1.73;;;;;;;19.92;39.28;102233.81;5012097;28;20179;-75
2022/05/05 10:08:15;;;;;;;4.00;1.80;;;;;;;19.73;37.44;102237.22;5010828;28;20680;-74
2022/05/05 10:10:42;;;;;;;6.73;1.53;;;;;;;19.85;36.65;102232.94;5021517;28;20191;-74
2022/05/05 10:13:09;;;;;;;5.03;1.80;;;;;;;20.31;36.82;102236.59;5030514;28;20210;-75
2022/05/05 10:15:35;;;;;;;4.90;1.63;;;;;;;20.65;36.76;102233.16;5031000;28;20228;-74
2022/05/05 10:18:03;;;;;;;7.93;2.10;;;;;;;20.50;36.91;102238.34;5028861;28;20214;-74
2022/05/05 10:20:31;;;;;;;3.47;1.80;;;;;;;20.80;37.75;102239.22;5031080;28;20547;-74
2022/05/05 10:23:14;;;;;;;6.10;2.07;;;;;;;20.68;37.82;102235.75;5049090;28;20838;-74
2022/05/05 10:25:39;;;;;;;4.33;1.70;;;;;;;20.91;38.47;102237.50;5049008;28;20181;-74
2022/05/05 10:28:36;;;;;;;6.57;1.80;;;;;;;20.92;37.37;102235.78;5050374;28;20188;-74
2022/05/05 10:31:01;;;;;;;5.00;2.23;;;;;;;21.21;37.53;102229.69;5049863;28;20194;-74
2022/05/05 10:34:08;;;;;;;4.70;1.97;;;;;;;21.42;38.36;102228.75;5050487;28;20216;-74
2022/05/05 10:36:36;;;;;;;3.60;1.60;;;;;;;21.75;34.69;102229.53;5049980;28;20189;-74
2022/05/05 10:39:23;;;;;;;3.97;2.00;;;;;;;21.20;35.05;102233.16;5049040;28;20300;-75
2022/05/05 10:41:51;;;;;;;6.03;2.20;;;;;;;21.14;36.00;102234.91;5049934;28;20189;-75
2022/05/05 10:44:16;;;;;;;5.73;1.90;;;;;;;21.05;35.27;102242.72;5042918;28;20256;-74
2022/05/05 10:46:58;;;;;;;2.97;1.70;;;;;;;21.53;35.77;102229.59;5029735;28;20198;-75
2022/05/05 10:49:39;;;;;;;3.43;1.73;;;;;;;21.70;35.28;102235.66;5030297;28;20183;-74
2022/05/05 10:52:10;;;;;;;5.07;2.33;;;;;;;21.67;35.72;102231.28;5029883;28;20746;-75
2022/05/05 10:54:44;;;;;;;5.33;2.17;;;;;;;21.54;35.05;102240.03;5030110;28;20564;-74
2022/05/05 10:57:24;;;;;;;5.23;2.37;;;;;;;21.50;36.70;102232.19;5030062;28;20175;-74
2022/05/05 11:00:10;;;;;;;4.93;2.23;;;;;;;20.59;35.68;102236.59;5029547;28;20586;-75
2022/05/05 11:02:37;;;;;;;5.37;1.90;;;;;;;20.89;36.74;102235.75;5010564;28;20230;-74
2022/05/05 11:05:22;;;;;;;6.23;1.90;;;;;;;21.47;35.84;102233.06;5009679;28;20203;-75
2022/05/05 11:07:51;;;;;;;3.93;1.73;;;;;;;21.57;34.93;102229.59;5009996;28;20194;-75
2022/05/05 11:13:37;;;;;;;4.30;1.77;;;;;;;21.56;35.13;102230.44;5010205;28;20293;-75
2022/05/05 11:22:19;;;;;;;4.60;1.60;;;;;;;22.00;34.14;102227.69;5009613;28;21844;-74
2022/05/05 11:24:46;;;;;;;3.93;1.83;;;;;;;21.80;34.16;102232.13;5010066;28;20190;-75
2022/05/05 11:27:14;;;;;;;3.13;1.80;;;;;;;21.98;35.59;102232.06;5009449;28;20217;-75
2022/05/05 11:29:40;;;;;;;3.20;1.60;;;;;;;21.76;34.53;102231.28;5009923;28;20179;-75
2022/05/05 11:32:08;;;;;;;5.47;1.83;;;;;;;21.57;35.34;102234.81;5007525;28;20190;-75
2022/05/05 11:34:39;;;;;;;3.77;1.63;;;;;;;22.09;34.56;102238.06;5010606;28;20178;-75
2022/05/05 11:37:07;;;;;;;4.37;1.80;;;;;;;22.14;34.23;102233.69;5029309;28;20794;-74
2022/05/05 11:39:35;;;;;;;2.67;1.50;;;;;;;22.50;33.23;102233.50;5029057;28;20225;-75
2022/05/05 11:42:08;;;;;;;4.43;1.80;;;;;;;22.04;33.24;102227.66;5029538;28;20314;-75
2022/05/05 11:44:39;;;;;;;5.33;1.90;;;;;;;22.48;34.92;102226.56;5029226;28;20556;-75
2022/05/05 11:47:22;;;;;;;4.30;1.63;;;;;;;22.64;33.04;102222.97;5029303;28;20218;-75
2022/05/05 11:49:52;;;;;;;4.80;1.83;;;;;;;22.39;32.84;102236.13;5028867;28;20240;-74
2022/05/05 11:52:24;;;;;;;6.57;2.10;;;;;;;22.49;34.54;102233.50;5021736;28;20301;-75
2022/05/05 11:54:53;;;;;;;4.40;1.77;;;;;;;22.55;35.13;102233.47;5009743;28;20224;-75
2022/05/05 11:57:35;;;;;;;5.40;1.90;;;;;;;22.84;33.76;102232.34;5007954;28;20554;-75
2022/05/05 12:02:47;;;;;;;5.33;1.83;;;;;;;22.84;32.79;102224.50;5007229;28;20230;-75
2022/05/05 12:05:12;;;;;;;3.20;2.07;;;;;;;22.69;33.84;102224.63;5021495;28;20193;-75
2022/05/05 12:07:38;;;;;;;4.20;1.80;;;;;;;22.42;33.77;102223.06;5012798;28;20207;-75
2022/05/05 12:10:08;;;;;;;3.50;1.90;;;;;;;22.74;34.74;102225.47;5022550;28;20198;-75
2022/05/05 12:12:37;;;;;;;6.73;2.20;;;;;;;23.04;34.64;102229.56;5028647;28;20294;-75
2022/05/05 12:15:05;;;;;;;4.10;1.97;;;;;;;23.16;33.56;102227.69;5029229;28;20187;-75